sensor_id;sensor_type;location;lat;lon;timestamp;P1;durP1;ratioP1;P2;durP2;ratioP2
41925;SDS011;27615;51.826;5.692;2022-12-05T00:00:13;44.83;;;24.85;;
41925;SDS011;27615;51.826;5.692;2022-12-05T00:02:39;40.03;;;24.40;;
41925;SDS011;27615;51.826;5.692;2022-12-05T00:05:05;41.90;;;25.25;;
41925;SDS011;27615;51.826;5.692;2022-12-05T00:07:31;43.47;;;26.33;;
41925;SDS011;27615;51.826;5.692;2022-12-05T00:09:56;44.47;;;25.88;;
41925;SDS011;27615;51.826;5.692;2022-12-05T00:12:22;45.00;;;27.83;;
41925;SDS011;27615;51.826;5.692;2022-12-05T00:14:47;41.40;;;25.52;;
41925;SDS011;27615;51.826;5.692;2022-12-05T00:17:13;47.72;;;28.10;;
41925;SDS011;27615;51.826;5.692;2022-12-05T00:19:38;49.75;;;28.48;;
41925;SDS011;27615;51.826;5.692;2022-12-05T00:22:04;45.30;;;26.90;;
41925;SDS011;27615;51.826;5.692;2022-12-05T00:24:29;42.72;;;26.30;;
41925;SDS011;27615;51.826;5.692;2022-12-05T00:26:55;42.38;;;24.80;;
41925;SDS011;27615;51.826;5.692;2022-12-05T00:29:20;39.85;;;24.58;;
41925;SDS011;27615;51.826;5.692;2022-12-05T00:31:46;38.45;;;23.77;;
41925;SDS011;27615;51.826;5.692;2022-12-05T00:34:11;43.70;;;26.38;;
41925;SDS011;27615;51.826;5.692;2022-12-05T00:36:37;42.22;;;25.15;;
41925;SDS011;27615;51.826;5.692;2022-12-05T00:39:05;41.10;;;25.35;;
41925;SDS011;27615;51.826;5.692;2022-12-05T00:41:33;43.87;;;25.80;;
41925;SDS011;27615;51.826;5.692;2022-12-05T00:43:59;39.35;;;25.90;;
41925;SDS011;27615;51.826;5.692;2022-12-05T00:46:26;43.53;;;26.23;;
41925;SDS011;27615;51.826;5.692;2022-12-05T00:48:54;48.33;;;27.77;;
41925;SDS011;27615;51.826;5.692;2022-12-05T00:51:23;49.15;;;27.60;;
41925;SDS011;27615;51.826;5.692;2022-12-05T00:53:52;51.38;;;28.67;;
41925;SDS011;27615;51.826;5.692;2022-12-05T00:56:19;46.08;;;27.55;;
41925;SDS011;27615;51.826;5.692;2022-12-05T00:58:46;45.45;;;26.88;;
41925;SDS011;27615;51.826;5.692;2022-12-05T01:01:13;47.72;;;28.42;;
41925;SDS011;27615;51.826;5.692;2022-12-05T01:03:41;45.35;;;26.08;;
41925;SDS011;27615;51.826;5.692;2022-12-05T01:06:07;52.08;;;28.83;;
41925;SDS011;27615;51.826;5.692;2022-12-05T01:08:34;51.90;;;29.98;;
41925;SDS011;27615;51.826;5.692;2022-12-05T01:11:00;52.63;;;30.13;;
41925;SDS011;27615;51.826;5.692;2022-12-05T01:13:26;52.83;;;32.08;;
41925;SDS011;27615;51.826;5.692;2022-12-05T01:15:53;50.97;;;30.08;;
41925;SDS011;27615;51.826;5.692;2022-12-05T01:18:19;53.22;;;28.17;;
41925;SDS011;27615;51.826;5.692;2022-12-05T01:20:46;49.03;;;28.00;;
41925;SDS011;27615;51.826;5.692;2022-12-05T01:23:11;44.55;;;28.33;;
41925;SDS011;27615;51.826;5.692;2022-12-05T01:25:38;55.35;;;32.05;;
41925;SDS011;27615;51.826;5.692;2022-12-05T01:28:05;51.08;;;28.75;;
41925;SDS011;27615;51.826;5.692;2022-12-05T01:30:30;53.25;;;30.52;;
41925;SDS011;27615;51.826;5.692;2022-12-05T01:32:56;50.03;;;30.35;;
41925;SDS011;27615;51.826;5.692;2022-12-05T01:35:23;53.92;;;32.03;;
41925;SDS011;27615;51.826;5.692;2022-12-05T01:37:49;54.38;;;30.85;;
41925;SDS011;27615;51.826;5.692;2022-12-05T01:40:15;52.78;;;31.30;;
41925;SDS011;27615;51.826;5.692;2022-12-05T01:42:41;60.58;;;31.63;;
41925;SDS011;27615;51.826;5.692;2022-12-05T01:45:12;54.95;;;29.50;;
41925;SDS011;27615;51.826;5.692;2022-12-05T01:47:40;53.70;;;29.50;;
41925;SDS011;27615;51.826;5.692;2022-12-05T01:50:06;57.83;;;32.83;;
41925;SDS011;27615;51.826;5.692;2022-12-05T01:52:33;53.88;;;30.50;;
41925;SDS011;27615;51.826;5.692;2022-12-05T01:55:02;56.05;;;30.48;;
41925;SDS011;27615;51.826;5.692;2022-12-05T01:57:31;54.45;;;30.35;;
41925;SDS011;27615;51.826;5.692;2022-12-05T01:59:58;55.08;;;30.73;;
41925;SDS011;27615;51.826;5.692;2022-12-05T02:02:27;56.97;;;32.97;;
41925;SDS011;27615;51.826;5.692;2022-12-05T02:07:34;55.75;;;33.28;;
41925;SDS011;27615;51.826;5.692;2022-12-05T02:10:03;56.40;;;30.27;;
41925;SDS011;27615;51.826;5.692;2022-12-05T02:12:30;52.92;;;32.28;;
41925;SDS011;27615;51.826;5.692;2022-12-05T02:18:05;54.33;;;31.05;;
41925;SDS011;27615;51.826;5.692;2022-12-05T02:23:35;56.60;;;30.42;;
41925;SDS011;27615;51.826;5.692;2022-12-05T02:29:29;54.17;;;31.10;;
41925;SDS011;27615;51.826;5.692;2022-12-05T02:35:04;55.25;;;29.75;;
41925;SDS011;27615;51.826;5.692;2022-12-05T02:43:22;51.85;;;30.42;;
41925;SDS011;27615;51.826;5.692;2022-12-05T02:45:55;51.72;;;28.40;;
41925;SDS011;27615;51.826;5.692;2022-12-05T02:48:25;53.05;;;30.50;;
41925;SDS011;27615;51.826;5.692;2022-12-05T02:50:53;55.42;;;32.08;;
41925;SDS011;27615;51.826;5.692;2022-12-05T02:53:20;51.58;;;29.17;;
41925;SDS011;27615;51.826;5.692;2022-12-05T02:55:49;48.63;;;29.73;;
41925;SDS011;27615;51.826;5.692;2022-12-05T02:58:16;53.45;;;29.67;;
41925;SDS011;27615;51.826;5.692;2022-12-05T03:00:47;49.05;;;27.55;;
41925;SDS011;27615;51.826;5.692;2022-12-05T03:03:15;47.92;;;27.27;;
41925;SDS011;27615;51.826;5.692;2022-12-05T03:06:03;48.83;;;29.13;;
41925;SDS011;27615;51.826;5.692;2022-12-05T03:08:52;47.70;;;27.35;;
41925;SDS011;27615;51.826;5.692;2022-12-05T03:11:22;45.33;;;26.98;;
41925;SDS011;27615;51.826;5.692;2022-12-05T03:13:48;47.25;;;28.30;;
41925;SDS011;27615;51.826;5.692;2022-12-05T03:16:21;46.83;;;26.80;;
41925;SDS011;27615;51.826;5.692;2022-12-05T03:18:54;52.13;;;29.90;;
41925;SDS011;27615;51.826;5.692;2022-12-05T03:23:50;49.72;;;27.73;;
41925;SDS011;27615;51.826;5.692;2022-12-05T03:34:31;47.72;;;27.85;;
41925;SDS011;27615;51.826;5.692;2022-12-05T03:37:59;51.90;;;29.45;;
41925;SDS011;27615;51.826;5.692;2022-12-05T03:42:55;45.42;;;26.23;;
41925;SDS011;27615;51.826;5.692;2022-12-05T03:45:36;42.88;;;25.83;;
41925;SDS011;27615;51.826;5.692;2022-12-05T03:48:15;49.40;;;28.52;;
41925;SDS011;27615;51.826;5.692;2022-12-05T03:50:51;47.40;;;26.38;;
41925;SDS011;27615;51.826;5.692;2022-12-05T03:53:23;53.30;;;29.48;;
41925;SDS011;27615;51.826;5.692;2022-12-05T03:56:04;43.50;;;26.38;;
41925;SDS011;27615;51.826;5.692;2022-12-05T04:01:05;45.17;;;24.83;;
41925;SDS011;27615;51.826;5.692;2022-12-05T04:04:10;40.05;;;23.85;;
41925;SDS011;27615;51.826;5.692;2022-12-05T04:06:34;38.90;;;23.63;;
41925;SDS011;27615;51.826;5.692;2022-12-05T04:09:11;43.10;;;26.15;;
41925;SDS011;27615;51.826;5.692;2022-12-05T04:11:42;42.97;;;26.38;;
41925;SDS011;27615;51.826;5.692;2022-12-05T04:14:13;45.25;;;27.45;;
41925;SDS011;27615;51.826;5.692;2022-12-05T04:16:42;44.03;;;25.50;;
41925;SDS011;27615;51.826;5.692;2022-12-05T04:22:36;39.17;;;24.17;;
41925;SDS011;27615;51.826;5.692;2022-12-05T04:25:03;43.28;;;24.67;;
41925;SDS011;27615;51.826;5.692;2022-12-05T04:30:38;38.13;;;23.30;;
41925;SDS011;27615;51.826;5.692;2022-12-05T04:38:41;36.40;;;21.85;;
41925;SDS011;27615;51.826;5.692;2022-12-05T04:41:17;36.25;;;21.67;;
41925;SDS011;27615;51.826;5.692;2022-12-05T04:43:46;35.08;;;21.88;;
41925;SDS011;27615;51.826;5.692;2022-12-05T04:46:14;37.22;;;22.60;;
41925;SDS011;27615;51.826;5.692;2022-12-05T04:48:42;35.78;;;20.70;;
41925;SDS011;27615;51.826;5.692;2022-12-05T04:51:14;36.10;;;22.25;;
41925;SDS011;27615;51.826;5.692;2022-12-05T04:53:44;33.92;;;20.02;;
41925;SDS011;27615;51.826;5.692;2022-12-05T04:56:14;34.70;;;21.23;;
41925;SDS011;27615;51.826;5.692;2022-12-05T04:58:42;33.35;;;21.25;;
41925;SDS011;27615;51.826;5.692;2022-12-05T05:01:10;35.50;;;20.92;;
41925;SDS011;27615;51.826;5.692;2022-12-05T05:03:42;34.50;;;21.60;;
41925;SDS011;27615;51.826;5.692;2022-12-05T05:06:15;32.30;;;20.10;;
41925;SDS011;27615;51.826;5.692;2022-12-05T05:08:45;29.67;;;18.90;;
41925;SDS011;27615;51.826;5.692;2022-12-05T05:11:14;30.27;;;18.52;;
41925;SDS011;27615;51.826;5.692;2022-12-05T05:13:42;32.60;;;20.05;;
41925;SDS011;27615;51.826;5.692;2022-12-05T05:16:11;30.90;;;18.30;;
41925;SDS011;27615;51.826;5.692;2022-12-05T05:21:20;33.83;;;20.00;;
41925;SDS011;27615;51.826;5.692;2022-12-05T05:23:55;34.80;;;21.23;;
41925;SDS011;27615;51.826;5.692;2022-12-05T05:26:22;31.55;;;19.58;;
41925;SDS011;27615;51.826;5.692;2022-12-05T05:28:48;30.27;;;18.65;;
41925;SDS011;27615;51.826;5.692;2022-12-05T05:31:15;29.13;;;18.42;;
41925;SDS011;27615;51.826;5.692;2022-12-05T05:33:41;29.77;;;18.35;;
41925;SDS011;27615;51.826;5.692;2022-12-05T05:36:08;32.03;;;19.27;;
41925;SDS011;27615;51.826;5.692;2022-12-05T05:38:38;31.48;;;18.92;;
41925;SDS011;27615;51.826;5.692;2022-12-05T05:41:10;28.65;;;18.00;;
41925;SDS011;27615;51.826;5.692;2022-12-05T05:43:41;34.28;;;20.60;;
41925;SDS011;27615;51.826;5.692;2022-12-05T05:46:07;31.27;;;19.95;;
41925;SDS011;27615;51.826;5.692;2022-12-05T05:48:33;30.58;;;19.17;;
41925;SDS011;27615;51.826;5.692;2022-12-05T05:51:03;30.77;;;20.20;;
41925;SDS011;27615;51.826;5.692;2022-12-05T05:53:30;27.40;;;18.02;;
41925;SDS011;27615;51.826;5.692;2022-12-05T05:55:56;28.45;;;18.30;;
41925;SDS011;27615;51.826;5.692;2022-12-05T05:58:21;29.88;;;18.13;;
41925;SDS011;27615;51.826;5.692;2022-12-05T06:00:47;34.75;;;21.05;;
41925;SDS011;27615;51.826;5.692;2022-12-05T06:03:12;32.10;;;20.33;;
41925;SDS011;27615;51.826;5.692;2022-12-05T06:05:38;32.85;;;20.48;;
41925;SDS011;27615;51.826;5.692;2022-12-05T06:08:04;32.28;;;20.50;;
41925;SDS011;27615;51.826;5.692;2022-12-05T06:10:29;29.25;;;20.15;;
41925;SDS011;27615;51.826;5.692;2022-12-05T06:12:56;28.40;;;18.67;;
41925;SDS011;27615;51.826;5.692;2022-12-05T06:15:22;29.25;;;19.30;;
41925;SDS011;27615;51.826;5.692;2022-12-05T06:17:47;28.50;;;19.02;;
41925;SDS011;27615;51.826;5.692;2022-12-05T06:20:13;30.70;;;19.27;;
41925;SDS011;27615;51.826;5.692;2022-12-05T06:22:39;37.03;;;22.48;;
41925;SDS011;27615;51.826;5.692;2022-12-05T06:25:04;32.50;;;20.50;;
41925;SDS011;27615;51.826;5.692;2022-12-05T06:27:31;31.30;;;21.40;;
41925;SDS011;27615;51.826;5.692;2022-12-05T06:29:56;31.27;;;20.25;;
41925;SDS011;27615;51.826;5.692;2022-12-05T06:32:22;29.13;;;18.52;;
41925;SDS011;27615;51.826;5.692;2022-12-05T06:34:47;33.70;;;21.45;;
41925;SDS011;27615;51.826;5.692;2022-12-05T06:37:13;27.20;;;18.67;;
41925;SDS011;27615;51.826;5.692;2022-12-05T06:39:38;30.30;;;19.52;;
41925;SDS011;27615;51.826;5.692;2022-12-05T06:42:04;35.00;;;21.42;;
41925;SDS011;27615;51.826;5.692;2022-12-05T06:44:30;34.92;;;21.13;;
41925;SDS011;27615;51.826;5.692;2022-12-05T06:46:55;29.50;;;19.65;;
41925;SDS011;27615;51.826;5.692;2022-12-05T06:49:22;32.17;;;20.83;;
41925;SDS011;27615;51.826;5.692;2022-12-05T06:51:50;28.65;;;20.40;;
41925;SDS011;27615;51.826;5.692;2022-12-05T06:54:17;33.92;;;21.38;;
41925;SDS011;27615;51.826;5.692;2022-12-05T06:56:43;28.67;;;18.67;;
41925;SDS011;27615;51.826;5.692;2022-12-05T06:59:08;29.88;;;19.88;;
41925;SDS011;27615;51.826;5.692;2022-12-05T07:01:34;25.55;;;18.05;;
41925;SDS011;27615;51.826;5.692;2022-12-05T07:04:26;30.63;;;19.23;;
41925;SDS011;27615;51.826;5.692;2022-12-05T07:06:52;30.10;;;19.05;;
41925;SDS011;27615;51.826;5.692;2022-12-05T07:09:20;31.02;;;20.73;;
41925;SDS011;27615;51.826;5.692;2022-12-05T07:12:07;25.90;;;18.42;;
41925;SDS011;27615;51.826;5.692;2022-12-05T07:14:33;33.10;;;20.48;;
41925;SDS011;27615;51.826;5.692;2022-12-05T07:16:58;29.25;;;19.27;;
41925;SDS011;27615;51.826;5.692;2022-12-05T07:19:24;27.83;;;17.90;;
41925;SDS011;27615;51.826;5.692;2022-12-05T07:21:49;29.65;;;20.13;;
41925;SDS011;27615;51.826;5.692;2022-12-05T07:24:15;27.30;;;18.65;;
41925;SDS011;27615;51.826;5.692;2022-12-05T07:26:40;28.63;;;18.23;;
41925;SDS011;27615;51.826;5.692;2022-12-05T07:29:06;27.80;;;18.65;;
41925;SDS011;27615;51.826;5.692;2022-12-05T07:31:31;27.90;;;18.95;;
41925;SDS011;27615;51.826;5.692;2022-12-05T07:33:58;29.13;;;19.00;;
41925;SDS011;27615;51.826;5.692;2022-12-05T07:36:23;24.23;;;17.25;;
41925;SDS011;27615;51.826;5.692;2022-12-05T07:38:53;22.33;;;16.50;;
41925;SDS011;27615;51.826;5.692;2022-12-05T07:41:24;26.17;;;16.98;;
41925;SDS011;27615;51.826;5.692;2022-12-05T07:43:52;27.83;;;17.25;;
41925;SDS011;27615;51.826;5.692;2022-12-05T07:46:19;29.05;;;19.00;;
41925;SDS011;27615;51.826;5.692;2022-12-05T07:48:49;31.60;;;20.60;;
41925;SDS011;27615;51.826;5.692;2022-12-05T07:51:15;27.65;;;19.27;;
41925;SDS011;27615;51.826;5.692;2022-12-05T07:53:41;27.75;;;18.17;;
41925;SDS011;27615;51.826;5.692;2022-12-05T07:56:09;26.98;;;18.30;;
41925;SDS011;27615;51.826;5.692;2022-12-05T07:58:36;31.35;;;21.50;;
41925;SDS011;27615;51.826;5.692;2022-12-05T08:01:21;28.15;;;18.92;;
41925;SDS011;27615;51.826;5.692;2022-12-05T08:03:48;28.40;;;19.55;;
41925;SDS011;27615;51.826;5.692;2022-12-05T08:06:16;29.10;;;19.15;;
41925;SDS011;27615;51.826;5.692;2022-12-05T08:08:43;28.40;;;18.95;;
41925;SDS011;27615;51.826;5.692;2022-12-05T08:11:13;27.55;;;17.40;;
41925;SDS011;27615;51.826;5.692;2022-12-05T08:13:41;25.15;;;17.80;;
41925;SDS011;27615;51.826;5.692;2022-12-05T08:16:11;29.25;;;20.60;;
41925;SDS011;27615;51.826;5.692;2022-12-05T08:18:38;28.52;;;19.63;;
41925;SDS011;27615;51.826;5.692;2022-12-05T08:21:05;25.05;;;16.60;;
41925;SDS011;27615;51.826;5.692;2022-12-05T08:23:32;27.55;;;17.85;;
41925;SDS011;27615;51.826;5.692;2022-12-05T08:26:02;27.48;;;18.30;;
41925;SDS011;27615;51.826;5.692;2022-12-05T08:28:29;29.95;;;19.38;;
41925;SDS011;27615;51.826;5.692;2022-12-05T08:30:55;30.80;;;20.15;;
41925;SDS011;27615;51.826;5.692;2022-12-05T08:33:20;24.52;;;17.05;;
41925;SDS011;27615;51.826;5.692;2022-12-05T08:35:46;25.05;;;17.15;;
41925;SDS011;27615;51.826;5.692;2022-12-05T08:38:11;25.05;;;18.27;;
41925;SDS011;27615;51.826;5.692;2022-12-05T08:40:37;22.90;;;15.57;;
41925;SDS011;27615;51.826;5.692;2022-12-05T08:43:02;20.23;;;14.55;;
41925;SDS011;27615;51.826;5.692;2022-12-05T08:45:28;20.88;;;14.82;;
41925;SDS011;27615;51.826;5.692;2022-12-05T08:47:53;21.95;;;15.35;;
41925;SDS011;27615;51.826;5.692;2022-12-05T08:50:19;20.23;;;14.65;;
41925;SDS011;27615;51.826;5.692;2022-12-05T08:52:44;22.33;;;15.13;;
41925;SDS011;27615;51.826;5.692;2022-12-05T08:55:10;21.02;;;15.18;;
41925;SDS011;27615;51.826;5.692;2022-12-05T08:57:35;23.90;;;17.27;;
41925;SDS011;27615;51.826;5.692;2022-12-05T09:00:01;21.88;;;16.10;;
41925;SDS011;27615;51.826;5.692;2022-12-05T09:02:28;23.17;;;17.17;;
41925;SDS011;27615;51.826;5.692;2022-12-05T09:04:53;22.27;;;15.77;;
41925;SDS011;27615;51.826;5.692;2022-12-05T09:07:19;21.50;;;15.13;;
41925;SDS011;27615;51.826;5.692;2022-12-05T09:09:44;21.92;;;15.50;;
41925;SDS011;27615;51.826;5.692;2022-12-05T09:12:10;24.25;;;16.20;;
41925;SDS011;27615;51.826;5.692;2022-12-05T09:14:35;21.65;;;14.60;;
41925;SDS011;27615;51.826;5.692;2022-12-05T09:17:01;21.45;;;14.50;;
41925;SDS011;27615;51.826;5.692;2022-12-05T09:19:28;20.33;;;14.43;;
41925;SDS011;27615;51.826;5.692;2022-12-05T09:21:54;18.92;;;13.88;;
41925;SDS011;27615;51.826;5.692;2022-12-05T09:24:20;18.35;;;13.55;;
41925;SDS011;27615;51.826;5.692;2022-12-05T09:26:45;16.73;;;12.23;;
41925;SDS011;27615;51.826;5.692;2022-12-05T09:29:11;16.90;;;12.05;;
41925;SDS011;27615;51.826;5.692;2022-12-05T09:31:37;16.90;;;13.15;;
41925;SDS011;27615;51.826;5.692;2022-12-05T09:34:03;20.08;;;13.80;;
41925;SDS011;27615;51.826;5.692;2022-12-05T09:36:30;26.52;;;14.82;;
41925;SDS011;27615;51.826;5.692;2022-12-05T09:39:00;22.40;;;15.35;;
41925;SDS011;27615;51.826;5.692;2022-12-05T09:41:46;19.63;;;15.27;;
41925;SDS011;27615;51.826;5.692;2022-12-05T09:55:34;22.35;;;16.05;;
41925;SDS011;27615;51.826;5.692;2022-12-05T09:58:20;23.00;;;16.17;;
41925;SDS011;27615;51.826;5.692;2022-12-05T10:00:59;18.45;;;14.13;;
41925;SDS011;27615;51.826;5.692;2022-12-05T10:06:28;20.88;;;14.95;;
41925;SDS011;27615;51.826;5.692;2022-12-05T10:09:19;21.90;;;17.05;;
41925;SDS011;27615;51.826;5.692;2022-12-05T10:12:13;21.30;;;15.45;;
41925;SDS011;27615;51.826;5.692;2022-12-05T10:17:38;21.83;;;15.60;;
41925;SDS011;27615;51.826;5.692;2022-12-05T10:20:10;18.42;;;14.25;;
41925;SDS011;27615;51.826;5.692;2022-12-05T10:22:46;18.55;;;13.82;;
41925;SDS011;27615;51.826;5.692;2022-12-05T10:25:17;19.80;;;14.55;;
41925;SDS011;27615;51.826;5.692;2022-12-05T10:27:55;18.63;;;13.50;;
41925;SDS011;27615;51.826;5.692;2022-12-05T10:30:31;19.63;;;13.45;;
41925;SDS011;27615;51.826;5.692;2022-12-05T10:33:03;18.33;;;13.77;;
41925;SDS011;27615;51.826;5.692;2022-12-05T10:35:39;19.23;;;14.35;;
41925;SDS011;27615;51.826;5.692;2022-12-05T10:38:24;16.50;;;11.93;;
41925;SDS011;27615;51.826;5.692;2022-12-05T10:40:53;16.80;;;11.70;;
41925;SDS011;27615;51.826;5.692;2022-12-05T10:43:29;17.45;;;12.18;;
41925;SDS011;27615;51.826;5.692;2022-12-05T10:45:56;15.35;;;11.52;;
41925;SDS011;27615;51.826;5.692;2022-12-05T10:48:23;15.52;;;10.65;;
41925;SDS011;27615;51.826;5.692;2022-12-05T10:50:51;18.23;;;11.90;;
41925;SDS011;27615;51.826;5.692;2022-12-05T10:53:20;13.70;;;10.55;;
41925;SDS011;27615;51.826;5.692;2022-12-05T10:56:00;13.10;;;9.82;;
41925;SDS011;27615;51.826;5.692;2022-12-05T10:58:26;14.10;;;10.52;;
41925;SDS011;27615;51.826;5.692;2022-12-05T11:00:53;14.10;;;10.38;;
41925;SDS011;27615;51.826;5.692;2022-12-05T11:05:56;13.52;;;10.40;;
41925;SDS011;27615;51.826;5.692;2022-12-05T11:08:25;12.03;;;8.87;;
41925;SDS011;27615;51.826;5.692;2022-12-05T11:11:03;12.60;;;9.65;;
41925;SDS011;27615;51.826;5.692;2022-12-05T11:13:30;13.35;;;10.00;;
41925;SDS011;27615;51.826;5.692;2022-12-05T11:15:57;11.98;;;9.48;;
41925;SDS011;27615;51.826;5.692;2022-12-05T11:20:48;12.10;;;8.80;;
41925;SDS011;27615;51.826;5.692;2022-12-05T11:23:22;11.40;;;9.13;;
41925;SDS011;27615;51.826;5.692;2022-12-05T11:25:52;17.98;;;12.55;;
41925;SDS011;27615;51.826;5.692;2022-12-05T11:31:27;14.48;;;10.73;;
41925;SDS011;27615;51.826;5.692;2022-12-05T11:33:36;14.65;;;10.52;;
41925;SDS011;27615;51.826;5.692;2022-12-05T11:36:05;15.43;;;10.77;;
41925;SDS011;27615;51.826;5.692;2022-12-05T11:38:46;13.85;;;9.98;;
41925;SDS011;27615;51.826;5.692;2022-12-05T11:41:16;13.07;;;9.75;;
41925;SDS011;27615;51.826;5.692;2022-12-05T11:44:07;12.45;;;9.80;;
41925;SDS011;27615;51.826;5.692;2022-12-05T11:47:13;13.13;;;10.25;;
41925;SDS011;27615;51.826;5.692;2022-12-05T11:53:03;13.88;;;10.40;;
41925;SDS011;27615;51.826;5.692;2022-12-05T11:55:48;12.80;;;9.93;;
41925;SDS011;27615;51.826;5.692;2022-12-05T11:58:27;10.88;;;8.45;;
41925;SDS011;27615;51.826;5.692;2022-12-05T12:04:32;9.55;;;7.43;;
41925;SDS011;27615;51.826;5.692;2022-12-05T12:09:35;8.95;;;6.45;;
41925;SDS011;27615;51.826;5.692;2022-12-05T12:20:50;7.43;;;5.63;;
41925;SDS011;27615;51.826;5.692;2022-12-05T12:23:37;6.32;;;4.90;;
41925;SDS011;27615;51.826;5.692;2022-12-05T12:26:29;8.07;;;5.88;;
41925;SDS011;27615;51.826;5.692;2022-12-05T12:29:07;7.15;;;5.25;;
41925;SDS011;27615;51.826;5.692;2022-12-05T12:31:57;7.43;;;5.82;;
41925;SDS011;27615;51.826;5.692;2022-12-05T12:45:30;8.27;;;5.50;;
41925;SDS011;27615;51.826;5.692;2022-12-05T12:51:21;7.68;;;5.72;;
41925;SDS011;27615;51.826;5.692;2022-12-05T12:56:52;7.13;;;5.53;;
41925;SDS011;27615;51.826;5.692;2022-12-05T13:05:00;7.45;;;5.35;;
41925;SDS011;27615;51.826;5.692;2022-12-05T13:07:36;7.57;;;5.35;;
41925;SDS011;27615;51.826;5.692;2022-12-05T13:12:50;8.13;;;5.80;;
41925;SDS011;27615;51.826;5.692;2022-12-05T13:15:18;6.63;;;5.35;;
41925;SDS011;27615;51.826;5.692;2022-12-05T13:17:54;6.80;;;4.82;;
41925;SDS011;27615;51.826;5.692;2022-12-05T13:20:20;6.50;;;5.30;;
41925;SDS011;27615;51.826;5.692;2022-12-05T13:22:49;7.00;;;6.00;;
41925;SDS011;27615;51.826;5.692;2022-12-05T13:25:17;8.15;;;6.60;;
41925;SDS011;27615;51.826;5.692;2022-12-05T13:27:55;7.38;;;6.10;;
41925;SDS011;27615;51.826;5.692;2022-12-05T13:30:23;9.10;;;6.43;;
41925;SDS011;27615;51.826;5.692;2022-12-05T13:32:55;8.73;;;6.93;;
41925;SDS011;27615;51.826;5.692;2022-12-05T13:35:43;8.50;;;6.57;;
41925;SDS011;27615;51.826;5.692;2022-12-05T13:38:27;8.30;;;6.22;;
41925;SDS011;27615;51.826;5.692;2022-12-05T13:41:14;8.10;;;6.45;;
41925;SDS011;27615;51.826;5.692;2022-12-05T13:43:59;8.82;;;6.80;;
41925;SDS011;27615;51.826;5.692;2022-12-05T13:48:57;8.48;;;6.75;;
41925;SDS011;27615;51.826;5.692;2022-12-05T13:51:30;13.35;;;9.95;;
41925;SDS011;27615;51.826;5.692;2022-12-05T13:53:59;12.88;;;9.52;;
41925;SDS011;27615;51.826;5.692;2022-12-05T13:56:46;14.57;;;10.68;;
41925;SDS011;27615;51.826;5.692;2022-12-05T13:59:12;12.85;;;9.75;;
41925;SDS011;27615;51.826;5.692;2022-12-05T14:07:44;12.93;;;9.68;;
41925;SDS011;27615;51.826;5.692;2022-12-05T14:10:17;15.13;;;11.23;;
41925;SDS011;27615;51.826;5.692;2022-12-05T14:12:53;14.48;;;10.55;;
41925;SDS011;27615;51.826;5.692;2022-12-05T14:15:25;12.68;;;10.05;;
41925;SDS011;27615;51.826;5.692;2022-12-05T14:18:04;14.32;;;11.02;;
41925;SDS011;27615;51.826;5.692;2022-12-05T14:31:41;12.93;;;9.20;;
41925;SDS011;27615;51.826;5.692;2022-12-05T14:34:17;12.25;;;9.30;;
41925;SDS011;27615;51.826;5.692;2022-12-05T14:37:02;12.95;;;9.00;;
41925;SDS011;27615;51.826;5.692;2022-12-05T14:39:32;10.98;;;8.25;;
41925;SDS011;27615;51.826;5.692;2022-12-05T14:44:57;10.15;;;8.15;;
41925;SDS011;27615;51.826;5.692;2022-12-05T14:47:26;11.50;;;8.50;;
41925;SDS011;27615;51.826;5.692;2022-12-05T14:52:43;10.38;;;9.23;;
41925;SDS011;27615;51.826;5.692;2022-12-05T14:55:29;9.35;;;7.60;;
41925;SDS011;27615;51.826;5.692;2022-12-05T14:57:55;10.57;;;7.82;;
41925;SDS011;27615;51.826;5.692;2022-12-05T15:00:21;11.18;;;9.23;;
41925;SDS011;27615;51.826;5.692;2022-12-05T15:02:47;10.82;;;7.97;;
41925;SDS011;27615;51.826;5.692;2022-12-05T15:07:41;11.75;;;8.52;;
41925;SDS011;27615;51.826;5.692;2022-12-05T15:10:22;10.10;;;8.07;;
41925;SDS011;27615;51.826;5.692;2022-12-05T15:16:05;12.80;;;8.60;;
41925;SDS011;27615;51.826;5.692;2022-12-05T15:18:44;10.20;;;7.75;;
41925;SDS011;27615;51.826;5.692;2022-12-05T15:21:23;11.13;;;8.43;;
41925;SDS011;27615;51.826;5.692;2022-12-05T15:24:00;9.48;;;7.38;;
41925;SDS011;27615;51.826;5.692;2022-12-05T15:29:08;8.63;;;6.93;;
41925;SDS011;27615;51.826;5.692;2022-12-05T15:31:38;8.20;;;6.45;;
41925;SDS011;27615;51.826;5.692;2022-12-05T15:34:29;9.38;;;6.88;;
41925;SDS011;27615;51.826;5.692;2022-12-05T15:37:28;8.38;;;5.82;;
41925;SDS011;27615;51.826;5.692;2022-12-05T15:40:09;8.50;;;6.05;;
41925;SDS011;27615;51.826;5.692;2022-12-05T15:42:42;8.55;;;6.00;;
41925;SDS011;27615;51.826;5.692;2022-12-05T15:47:44;7.70;;;5.68;;
41925;SDS011;27615;51.826;5.692;2022-12-05T15:52:41;7.45;;;5.35;;
41925;SDS011;27615;51.826;5.692;2022-12-05T15:55:10;5.43;;;4.82;;
41925;SDS011;27615;51.826;5.692;2022-12-05T15:57:47;6.78;;;4.68;;
41925;SDS011;27615;51.826;5.692;2022-12-05T16:00:17;5.43;;;4.13;;
41925;SDS011;27615;51.826;5.692;2022-12-05T16:02:54;6.15;;;3.78;;
41925;SDS011;27615;51.826;5.692;2022-12-05T16:05:33;4.15;;;3.25;;
41925;SDS011;27615;51.826;5.692;2022-12-05T16:08:04;7.72;;;5.78;;
41925;SDS011;27615;51.826;5.692;2022-12-05T16:10:30;7.55;;;5.95;;
41925;SDS011;27615;51.826;5.692;2022-12-05T16:13:01;7.93;;;6.72;;
41925;SDS011;27615;51.826;5.692;2022-12-05T16:15:29;7.13;;;6.05;;
41925;SDS011;27615;51.826;5.692;2022-12-05T16:17:55;4.68;;;4.10;;
41925;SDS011;27615;51.826;5.692;2022-12-05T16:20:27;5.75;;;4.80;;
41925;SDS011;27615;51.826;5.692;2022-12-05T16:22:55;4.50;;;3.70;;
41925;SDS011;27615;51.826;5.692;2022-12-05T16:25:26;3.10;;;2.80;;
41925;SDS011;27615;51.826;5.692;2022-12-05T16:30:32;3.22;;;2.50;;
41925;SDS011;27615;51.826;5.692;2022-12-05T16:40:27;8.60;;;7.20;;
41925;SDS011;27615;51.826;5.692;2022-12-05T16:43:04;7.03;;;5.70;;
41925;SDS011;27615;51.826;5.692;2022-12-05T16:45:38;5.55;;;4.45;;
41925;SDS011;27615;51.826;5.692;2022-12-05T16:48:13;5.07;;;3.70;;
41925;SDS011;27615;51.826;5.692;2022-12-05T16:50:45;3.25;;;2.60;;
41925;SDS011;27615;51.826;5.692;2022-12-05T16:53:16;2.80;;;1.95;;
41925;SDS011;27615;51.826;5.692;2022-12-05T16:55:52;3.10;;;1.80;;
41925;SDS011;27615;51.826;5.692;2022-12-05T16:58:22;2.72;;;1.52;;
41925;SDS011;27615;51.826;5.692;2022-12-05T17:00:49;1.88;;;1.60;;
41925;SDS011;27615;51.826;5.692;2022-12-05T17:03:15;2.20;;;1.83;;
41925;SDS011;27615;51.826;5.692;2022-12-05T17:05:41;2.35;;;1.30;;
41925;SDS011;27615;51.826;5.692;2022-12-05T17:08:07;2.30;;;1.30;;
41925;SDS011;27615;51.826;5.692;2022-12-05T17:10:33;2.10;;;1.30;;
41925;SDS011;27615;51.826;5.692;2022-12-05T17:12:58;2.15;;;1.67;;
41925;SDS011;27615;51.826;5.692;2022-12-05T17:15:25;2.03;;;1.60;;
41925;SDS011;27615;51.826;5.692;2022-12-05T17:17:50;2.08;;;1.60;;
41925;SDS011;27615;51.826;5.692;2022-12-05T17:20:16;3.35;;;1.98;;
41925;SDS011;27615;51.826;5.692;2022-12-05T17:22:41;2.70;;;1.85;;
41925;SDS011;27615;51.826;5.692;2022-12-05T17:25:15;4.07;;;3.10;;
41925;SDS011;27615;51.826;5.692;2022-12-05T17:27:42;3.70;;;2.72;;
41925;SDS011;27615;51.826;5.692;2022-12-05T17:30:07;2.72;;;2.20;;
41925;SDS011;27615;51.826;5.692;2022-12-05T17:32:33;3.47;;;2.53;;
41925;SDS011;27615;51.826;5.692;2022-12-05T17:35:01;4.93;;;3.80;;